Time;durP1;ratioP1;P1;durP2;ratioP2;P2;SDS_P1;SDS_P2;PMS_P1;PMS_P2;Temp;Humidity;BMP_temperature;BMP_pressure;BME280_temperature;BME280_humidity;BME280_pressure;Samples;Min_cycle;Max_cycle;Signal;HPM_P1;HPM_P2
2022/06/29 00:02:13;;;;;;;3.70;3.17;;;;;;;;;;4999490;28;20445;-82
2022/06/29 00:04:39;;;;;;;4.78;3.40;;;;;;;;;;5006497;28;20073;-82
2022/06/29 00:07:05;;;;;;;5.55;3.50;;;;;;;;;;5002397;28;20129;-82
2022/06/29 00:09:31;;;;;;;3.65;3.35;;;;;;;;;;5006207;28;20421;-82
2022/06/29 00:11:57;;;;;;;5.68;3.30;;;;;;;;;;5002840;28;20053;-83
2022/06/29 00:14:23;;;;;;;5.10;3.50;;;;;;;;;;5002270;28;20509;-83
2022/06/29 00:16:49;;;;;;;7.30;3.90;;;;;;;;;;5008400;28;20514;-82
2022/06/29 00:19:15;;;;;;;4.82;3.20;;;;;;;;;;5007287;28;20038;-83
2022/06/29 00:21:41;;;;;;;4.10;3.28;;;;;;;;;;4999671;28;20068;-82
2022/06/29 00:24:08;;;;;;;4.60;3.53;;;;;;;;;;5005971;28;20116;-82
2022/06/29 00:26:34;;;;;;;4.20;3.63;;;;;;;;;;5022811;28;20042;-82
2022/06/29 00:29:00;;;;;;;5.25;3.63;;;;;;;;;;4999737;28;20052;-82
2022/06/29 00:31:26;;;;;;;6.95;3.85;;;;;;;;;;5001259;28;20061;-82
2022/06/29 00:33:52;;;;;;;4.85;3.95;;;;;;;;;;5004082;28;20398;-82
2022/06/29 00:36:18;;;;;;;4.18;3.70;;;;;;;;;;5003903;28;20038;-82
2022/06/29 00:38:44;;;;;;;5.22;3.70;;;;;;;;;;5008216;28;20526;-82
2022/06/29 00:41:10;;;;;;;4.88;3.63;;;;;;;;;;5002920;28;20592;-82
2022/06/29 00:43:39;;;;;;;3.90;3.33;;;;;;;;;;5007721;28;20046;-82
2022/06/29 00:46:05;;;;;;;4.32;3.50;;;;;;;;;;5004922;28;20045;-83
2022/06/29 00:48:31;;;;;;;4.35;3.83;;;;;;;;;;5003958;28;20467;-82
2022/06/29 00:50:59;;;;;;;5.78;3.75;;;;;;;;;;5004653;28;20046;-82
2022/06/29 00:53:26;;;;;;;5.50;3.25;;;;;;;;;;5003899;28;20121;-82
2022/06/29 00:55:53;;;;;;;4.20;3.80;;;;;;;;;;5006239;28;20048;-82
2022/06/29 00:58:21;;;;;;;4.75;3.38;;;;;;;;;;5008423;28;20042;-82
2022/06/29 01:00:47;;;;;;;3.97;3.60;;;;;;;;;;5004054;28;20434;-83
2022/06/29 01:03:13;;;;;;;4.07;3.50;;;;;;;;;;5004678;28;20044;-83
2022/06/29 01:05:39;;;;;;;4.97;3.53;;;;;;;;;;5005315;28;20054;-82
2022/06/29 01:08:05;;;;;;;5.93;3.58;;;;;;;;;;5003369;28;20398;-82
2022/06/29 01:10:31;;;;;;;4.05;3.63;;;;;;;;;;5005760;28;20483;-83
2022/06/29 01:12:57;;;;;;;5.35;3.60;;;;;;;;;;5000976;28;20107;-82
2022/06/29 01:15:23;;;;;;;5.35;3.60;;;;;;;;;;5001649;28;20054;-83
2022/06/29 01:17:49;;;;;;;4.82;3.63;;;;;;;;;;5003384;28;20091;-82
2022/06/29 01:20:15;;;;;;;3.88;3.50;;;;;;;;;;5002244;28;20050;-82
2022/06/29 01:22:41;;;;;;;5.38;3.80;;;;;;;;;;5006252;28;20240;-82
2022/06/29 01:25:08;;;;;;;5.38;4.03;;;;;;;;;;5007442;28;20079;-83
2022/06/29 01:27:34;;;;;;;4.22;3.83;;;;;;;;;;5006922;28;20129;-83
2022/06/29 01:30:00;;;;;;;5.88;4.00;;;;;;;;;;5008058;28;20041;-83
2022/06/29 01:32:26;;;;;;;4.80;4.00;;;;;;;;;;5003332;28;20061;-83
2022/06/29 01:34:52;;;;;;;6.55;4.35;;;;;;;;;;5004135;28;20046;-83
2022/06/29 01:37:18;;;;;;;3.80;3.50;;;;;;;;;;5008635;28;20046;-82
2022/06/29 01:39:44;;;;;;;4.55;3.80;;;;;;;;;;5010405;28;20571;-83
2022/06/29 01:42:11;;;;;;;5.30;4.10;;;;;;;;;;5007784;28;20049;-83
2022/06/29 01:44:37;;;;;;;5.53;4.10;;;;;;;;;;5012392;28;20049;-83
2022/06/29 01:47:03;;;;;;;4.15;3.60;;;;;;;;;;5004068;28;20440;-83
2022/06/29 01:49:29;;;;;;;4.80;3.70;;;;;;;;;;5008887;28;20038;-82
2022/06/29 01:51:56;;;;;;;5.10;3.42;;;;;;;;;;5010175;28;20042;-82
2022/06/29 01:54:22;;;;;;;4.15;3.67;;;;;;;;;;5007894;28;20525;-82
2022/06/29 01:56:48;;;;;;;4.43;3.55;;;;;;;;;;5010898;28;20099;-83
2022/06/29 01:59:14;;;;;;;6.05;3.60;;;;;;;;;;5005229;28;20457;-83
2022/06/29 02:01:40;;;;;;;5.47;3.78;;;;;;;;;;5007133;28;20053;-82
2022/06/29 02:04:06;;;;;;;3.90;3.60;;;;;;;;;;5006557;28;20046;-82
2022/06/29 02:06:32;;;;;;;4.72;3.92;;;;;;;;;;5007500;28;20045;-82
2022/06/29 02:08:58;;;;;;;5.13;3.58;;;;;;;;;;5006078;28;20042;-83
2022/06/29 02:11:24;;;;;;;4.53;3.80;;;;;;;;;;5002326;28;20136;-82
2022/06/29 02:13:51;;;;;;;4.20;3.80;;;;;;;;;;5007436;28;20117;-83
2022/06/29 02:16:17;;;;;;;3.83;3.53;;;;;;;;;;5005157;28;20486;-82
2022/06/29 02:18:43;;;;;;;4.25;3.85;;;;;;;;;;5007992;28;20096;-82
2022/06/29 02:21:09;;;;;;;4.10;3.70;;;;;;;;;;5008611;28;20482;-81
2022/06/29 02:23:35;;;;;;;4.97;4.13;;;;;;;;;;5008081;28;20514;-82
2022/06/29 02:26:01;;;;;;;4.13;3.83;;;;;;;;;;5008232;28;20042;-82
2022/06/29 02:28:27;;;;;;;4.10;3.70;;;;;;;;;;5007403;28;20469;-82
2022/06/29 02:36:23;;;;;;;4.28;3.88;;;;;;;;;;5010148;28;20049;-82
2022/06/29 02:38:49;;;;;;;4.13;3.72;;;;;;;;;;5004420;28;20052;-82
2022/06/29 02:41:15;;;;;;;4.50;4.07;;;;;;;;;;5007019;28;20054;-82
2022/06/29 02:43:41;;;;;;;4.72;4.22;;;;;;;;;;5005123;28;20477;-82
2022/06/29 02:46:07;;;;;;;6.00;4.10;;;;;;;;;;5007312;28;20048;-83
2022/06/29 02:48:33;;;;;;;7.03;4.07;;;;;;;;;;5008140;28;20136;-82
2022/06/29 02:51:00;;;;;;;4.63;3.97;;;;;;;;;;5009256;28;20042;-82
2022/06/29 02:53:26;;;;;;;4.53;3.88;;;;;;;;;;5007909;28;20476;-82
2022/06/29 02:55:52;;;;;;;5.40;3.92;;;;;;;;;;5006729;28;20049;-82
2022/06/29 02:58:18;;;;;;;4.50;4.10;;;;;;;;;;5009801;28;20084;-82
2022/06/29 03:00:44;;;;;;;6.70;4.20;;;;;;;;;;5005193;28;20050;-83
2022/06/29 03:03:10;;;;;;;5.63;4.07;;;;;;;;;;5007373;28;20052;-82
2022/06/29 03:05:36;;;;;;;4.55;4.15;;;;;;;;;;5008053;28;20037;-82
2022/06/29 03:08:02;;;;;;;4.20;3.80;;;;;;;;;;5007954;28;20038;-82
2022/06/29 03:10:28;;;;;;;4.97;3.85;;;;;;;;;;5002001;28;20445;-82
2022/06/29 03:12:54;;;;;;;5.07;4.03;;;;;;;;;;5007391;28;20041;-81
2022/06/29 03:15:20;;;;;;;4.32;3.95;;;;;;;;;;5003898;28;20033;-82
2022/06/29 03:17:46;;;;;;;4.38;3.83;;;;;;;;;;5006233;28;20069;-82
2022/06/29 03:20:13;;;;;;;5.63;4.03;;;;;;;;;;5005278;28;20053;-82
2022/06/29 03:22:39;;;;;;;6.65;4.50;;;;;;;;;;5009152;28;20096;-82
2022/06/29 03:25:05;;;;;;;4.40;4.00;;;;;;;;;;5008358;28;20461;-83
2022/06/29 03:27:35;;;;;;;4.28;3.88;;;;;;;;;;5007109;28;20053;-82
2022/06/29 03:30:01;;;;;;;5.68;4.50;;;;;;;;;;5005147;28;20048;-83
2022/06/29 03:32:27;;;;;;;4.60;4.20;;;;;;;;;;5005392;28;20107;-83
2022/06/29 03:34:53;;;;;;;4.57;4.10;;;;;;;;;;5007464;28;20053;-82
2022/06/29 03:37:19;;;;;;;5.32;4.18;;;;;;;;;;5007187;28;20053;-82
2022/06/29 03:39:45;;;;;;;4.63;4.00;;;;;;;;;;5008100;28;20038;-82
2022/06/29 03:42:11;;;;;;;4.30;3.67;;;;;;;;;;5001186;28;20046;-82
2022/06/29 03:44:37;;;;;;;7.32;4.18;;;;;;;;;;5008915;28;20096;-82
2022/06/29 03:47:04;;;;;;;4.30;3.90;;;;;;;;;;5005782;28;20122;-82
2022/06/29 03:49:30;;;;;;;4.45;4.05;;;;;;;;;;5003654;28;20046;-82
2022/06/29 03:51:56;;;;;;;4.65;4.20;;;;;;;;;;5007526;28;20500;-81
2022/06/29 03:54:22;;;;;;;5.82;4.18;;;;;;;;;;5000854;28;20110;-81
2022/06/29 03:56:48;;;;;;;6.00;4.18;;;;;;;;;;5007935;28;20113;-83
2022/06/29 03:59:14;;;;;;;6.28;4.30;;;;;;;;;;5006967;28;20433;-83
2022/06/29 04:01:40;;;;;;;4.47;4.07;;;;;;;;;;5003993;28;20046;-82
2022/06/29 04:04:06;;;;;;;4.90;4.43;;;;;;;;;;5005146;28;20046;-82
2022/06/29 04:06:32;;;;;;;5.72;4.18;;;;;;;;;;5007706;28;20100;-82
2022/06/29 04:08:58;;;;;;;4.68;4.10;;;;;;;;;;5007557;28;20474;-83
2022/06/29 04:14:08;;;;;;;4.90;4.50;;;;;;;;;;4998883;28;20054;-82
2022/06/29 04:16:34;;;;;;;4.70;4.03;;;;;;;;;;5005557;28;20053;-82
2022/06/29 04:19:01;;;;;;;4.63;4.20;;;;;;;;;;5005584;28;20152;-81
2022/06/29 04:21:27;;;;;;;4.72;4.00;;;;;;;;;;5009474;28;20054;-82
2022/06/29 04:23:53;;;;;;;5.05;4.65;;;;;;;;;;5011857;28;20489;-82
2022/06/29 04:26:19;;;;;;;5.57;4.13;;;;;;;;;;5005192;28;20088;-82
2022/06/29 04:28:45;;;;;;;6.25;4.18;;;;;;;;;;5012278;28;20052;-82
2022/06/29 04:31:11;;;;;;;4.95;4.22;;;;;;;;;;5009282;28;20092;-83
2022/06/29 04:33:37;;;;;;;5.70;4.55;;;;;;;;;;5011414;28;20100;-82
2022/06/29 04:36:03;;;;;;;5.15;4.72;;;;;;;;;;5011170;28;20497;-83
2022/06/29 04:38:29;;;;;;;4.90;4.47;;;;;;;;;;5006657;28;20046;-83
2022/06/29 04:40:55;;;;;;;5.35;4.72;;;;;;;;;;5009910;28;20386;-83
2022/06/29 04:43:21;;;;;;;4.95;4.40;;;;;;;;;;5008391;28;20042;-83
2022/06/29 04:48:31;;;;;;;4.97;4.47;;;;;;;;;;4998639;28;20141;-84
2022/06/29 04:50:57;;;;;;;4.72;4.32;;;;;;;;;;5008844;28;20152;-82
2022/06/29 04:53:23;;;;;;;6.50;4.40;;;;;;;;;;5002487;28;20052;-82
2022/06/29 04:55:49;;;;;;;4.68;4.38;;;;;;;;;;5001346;28;20052;-82
2022/06/29 04:58:15;;;;;;;5.20;4.55;;;;;;;;;;5002542;28;20042;-82
2022/06/29 05:00:42;;;;;;;5.43;4.78;;;;;;;;;;5002682;28;20052;-82
2022/06/29 05:03:08;;;;;;;5.60;4.78;;;;;;;;;;5000208;28;20046;-82
2022/06/29 05:05:34;;;;;;;5.43;4.88;;;;;;;;;;5003374;28;20097;-82
2022/06/29 05:08:00;;;;;;;4.72;4.32;;;;;;;;;;5002151;28;21515;-82
2022/06/29 05:10:25;;;;;;;6.05;4.78;;;;;;;;;;5001435;28;20141;-82
2022/06/29 05:12:51;;;;;;;5.50;4.95;;;;;;;;;;5001551;28;20081;-81
2022/06/29 05:15:18;;;;;;;7.50;4.80;;;;;;;;;;5003245;28;20460;-81
2022/06/29 05:17:45;;;;;;;5.05;4.55;;;;;;;;;;4999315;28;20421;-82
2022/06/29 05:20:11;;;;;;;5.18;4.78;;;;;;;;;;5003106;28;20425;-82
2022/06/29 05:22:37;;;;;;;4.70;4.30;;;;;;;;;;5005853;28;20188;-81
2022/06/29 05:25:03;;;;;;;4.75;4.35;;;;;;;;;;5005297;28;20038;-81
2022/06/29 05:27:29;;;;;;;6.82;4.55;;;;;;;;;;5009286;28;20073;-81
2022/06/29 05:29:55;;;;;;;5.47;4.70;;;;;;;;;;5006261;28;20135;-80
2022/06/29 05:32:21;;;;;;;4.97;4.38;;;;;;;;;;5004489;28;20527;-81
2022/06/29 05:34:47;;;;;;;5.13;4.63;;;;;;;;;;5008377;28;20049;-81
2022/06/29 05:37:13;;;;;;;5.93;4.68;;;;;;;;;;5004908;28;20046;-80
2022/06/29 05:39:40;;;;;;;5.55;4.22;;;;;;;;;;5004794;28;20046;-81
2022/06/29 05:42:06;;;;;;;5.75;4.50;;;;;;;;;;5009452;28;20050;-80
2022/06/29 05:44:32;;;;;;;5.07;4.35;;;;;;;;;;5006310;28;20401;-81
2022/06/29 05:46:58;;;;;;;4.97;4.47;;;;;;;;;;5004616;28;20041;-81
2022/06/29 05:49:24;;;;;;;5.57;4.28;;;;;;;;;;5004346;28;20486;-81
2022/06/29 05:51:50;;;;;;;4.72;4.32;;;;;;;;;;5007971;28;20092;-79
2022/06/29 05:54:16;;;;;;;4.60;4.20;;;;;;;;;;5007553;28;20037;-79
2022/06/29 05:56:42;;;;;;;4.85;4.45;;;;;;;;;;5007244;28;20473;-79
2022/06/29 05:59:08;;;;;;;4.97;4.47;;;;;;;;;;5002126;28;20038;-81
2022/06/29 06:01:34;;;;;;;6.20;4.40;;;;;;;;;;5002649;28;20050;-78
2022/06/29 06:04:00;;;;;;;4.82;4.20;;;;;;;;;;5005586;28;20050;-80
2022/06/29 06:06:26;;;;;;;4.50;4.05;;;;;;;;;;5001253;28;20060;-80
2022/06/29 06:08:52;;;;;;;4.05;3.70;;;;;;;;;;5019375;28;20152;-80
2022/06/29 06:11:18;;;;;;;6.35;4.10;;;;;;;;;;5007279;28;20095;-81
2022/06/29 06:13:44;;;;;;;4.60;4.15;;;;;;;;;;5003022;28;20486;-81
2022/06/29 06:16:10;;;;;;;7.18;4.05;;;;;;;;;;5005169;28;20045;-81
2022/06/29 06:18:36;;;;;;;4.20;3.90;;;;;;;;;;5008776;28;20078;-80
2022/06/29 06:21:03;;;;;;;4.20;3.80;;;;;;;;;;5005387;28;20057;-80
2022/06/29 06:23:29;;;;;;;4.35;3.95;;;;;;;;;;5010892;28;20182;-80
2022/06/29 06:25:55;;;;;;;4.75;3.80;;;;;;;;;;5010320;28;20485;-80
2022/06/29 06:28:21;;;;;;;4.50;4.05;;;;;;;;;;5010188;28;20057;-81
2022/06/29 06:30:47;;;;;;;5.93;4.30;;;;;;;;;;5010376;28;20736;-80
2022/06/29 06:33:13;;;;;;;5.10;3.90;;;;;;;;;;5011075;28;20046;-80
2022/06/29 06:35:39;;;;;;;4.18;3.80;;;;;;;;;;5010651;28;20219;-80
2022/06/29 06:38:05;;;;;;;3.95;3.63;;;;;;;;;;5010681;28;20261;-81
2022/06/29 06:43:15;;;;;;;4.68;4.15;;;;;;;;;;5009986;28;20049;-80
2022/06/29 06:45:42;;;;;;;5.28;3.95;;;;;;;;;;5008192;28;20046;-81
2022/06/29 06:48:08;;;;;;;5.50;3.70;;;;;;;;;;5010901;28;20065;-80
2022/06/29 06:50:34;;;;;;;4.65;3.75;;;;;;;;;;5008314;28;20393;-80
2022/06/29 06:53:02;;;;;;;4.18;3.85;;;;;;;;;;5010887;28;20046;-80
2022/06/29 06:55:28;;;;;;;5.15;3.90;;;;;;;;;;5008858;28;20393;-80
2022/06/29 06:57:54;;;;;;;5.30;3.80;;;;;;;;;;5011509;28;20056;-81
2022/06/29 07:00:20;;;;;;;3.92;3.63;;;;;;;;;;5009870;28;20129;-80
2022/06/29 07:02:46;;;;;;;4.10;3.75;;;;;;;;;;5007853;28;20057;-81
2022/06/29 07:05:12;;;;;;;4.75;4.25;;;;;;;;;;5011180;28;20037;-80
2022/06/29 07:07:38;;;;;;;5.30;3.65;;;;;;;;;;5011152;28;20046;-81
2022/06/29 07:10:04;;;;;;;3.97;3.35;;;;;;;;;;5010187;28;20034;-81
2022/06/29 07:12:30;;;;;;;4.68;3.20;;;;;;;;;;5008704;28;20046;-81
2022/06/29 07:14:56;;;;;;;4.65;3.50;;;;;;;;;;5008001;28;20045;-81
2022/06/29 07:17:22;;;;;;;5.22;3.42;;;;;;;;;;5007727;28;20161;-81
2022/06/29 07:19:48;;;;;;;4.13;3.40;;;;;;;;;;5010221;28;20083;-81
2022/06/29 07:22:14;;;;;;;6.10;3.38;;;;;;;;;;5009917;28;20052;-80
2022/06/29 07:24:40;;;;;;;5.03;3.20;;;;;;;;;;5008978;28;20034;-81
2022/06/29 07:27:06;;;;;;;3.50;3.20;;;;;;;;;;5010016;28;20099;-81
2022/06/29 07:29:32;;;;;;;3.55;3.20;;;;;;;;;;5009539;28;20124;-81
2022/06/29 07:31:58;;;;;;;3.85;3.47;;;;;;;;;;5006960;28;20041;-81
2022/06/29 07:34:24;;;;;;;4.90;3.63;;;;;;;;;;5009363;28;20038;-81
2022/06/29 07:36:50;;;;;;;3.20;3.00;;;;;;;;;;5010276;28;20045;-81
2022/06/29 07:39:17;;;;;;;3.30;3.00;;;;;;;;;;5010626;28;20042;-81
2022/06/29 07:41:43;;;;;;;4.72;3.05;;;;;;;;;;5009223;28;20053;-81
2022/06/29 07:44:09;;;;;;;4.03;2.97;;;;;;;;;;5008743;28;20040;-81
2022/06/29 07:46:35;;;;;;;3.45;3.13;;;;;;;;;;5007143;28;20046;-81
2022/06/29 07:49:01;;;;;;;4.18;2.78;;;;;;;;;;5011095;28;20228;-81
2022/06/29 07:51:27;;;;;;;5.43;3.17;;;;;;;;;;5009330;28;20520;-81
2022/06/29 07:53:53;;;;;;;4.93;2.90;;;;;;;;;;5010063;28;20081;-80
2022/06/29 07:56:19;;;;;;;4.93;3.25;;;;;;;;;;5009311;28;20096;-81
2022/06/29 07:58:46;;;;;;;4.13;3.20;;;;;;;;;;5007614;28;20482;-81
2022/06/29 08:01:12;;;;;;;4.28;3.10;;;;;;;;;;5007998;28;20121;-80
2022/06/29 08:03:38;;;;;;;3.22;3.00;;;;;;;;;;5008827;28;20092;-80
2022/06/29 08:06:07;;;;;;;4.15;3.13;;;;;;;;;;5004473;28;20054;-81
2022/06/29 08:08:33;;;;;;;3.55;2.60;;;;;;;;;;5007401;28;20092;-80
2022/06/29 08:10:59;;;;;;;4.50;2.63;;;;;;;;;;5010976;28;20061;-80
2022/06/29 08:13:25;;;;;;;3.22;2.70;;;;;;;;;;5006447;28;20054;-80
2022/06/29 08:15:51;;;;;;;3.10;2.80;;;;;;;;;;5002654;28;20073;-79
2022/06/29 08:18:17;;;;;;;3.08;2.67;;;;;;;;;;5006928;28;20077;-80
2022/06/29 08:20:44;;;;;;;5.60;2.67;;;;;;;;;;5006327;28;20057;-81
2022/06/29 08:23:10;;;;;;;3.08;2.60;;;;;;;;;;5009112;28;20042;-81
2022/06/29 08:25:36;;;;;;;3.35;2.83;;;;;;;;;;5007907;28;20052;-82
2022/06/29 08:28:03;;;;;;;3.03;2.83;;;;;;;;;;5010151;28;20117;-81
2022/06/29 08:30:29;;;;;;;4.22;2.58;;;;;;;;;;5001519;28;20493;-81
2022/06/29 08:32:55;;;;;;;2.83;2.60;;;;;;;;;;5007019;28;20498;-81
2022/06/29 08:35:21;;;;;;;3.10;2.50;;;;;;;;;;5008573;28;20077;-81
2022/06/29 08:37:47;;;;;;;2.95;2.60;;;;;;;;;;5008427;28;20081;-81
2022/06/29 08:40:15;;;;;;;2.72;2.40;;;;;;;;;;5008316;28;21377;-81
2022/06/29 08:42:42;;;;;;;2.45;2.25;;;;;;;;;;5007599;28;20046;-82
2022/06/29 08:45:08;;;;;;;3.47;2.20;;;;;;;;;;5008858;28;20053;-81
2022/06/29 08:47:35;;;;;;;4.15;2.40;;;;;;;;;;5008237;28;20394;-81
2022/06/29 08:50:05;;;;;;;2.75;2.50;;;;;;;;;;5009823;28;20088;-81
2022/06/29 08:52:31;;;;;;;2.92;2.38;;;;;;;;;;5007796;28;20472;-80
2022/06/29 08:54:57;;;;;;;3.72;2.60;;;;;;;;;;5003864;28;20045;-80
2022/06/29 08:57:23;;;;;;;4.10;2.30;;;;;;;;;;5008336;28;20050;-81
2022/06/29 08:59:52;;;;;;;3.15;2.13;;;;;;;;;;5009002;28;20081;-81
2022/06/29 09:02:18;;;;;;;2.55;2.28;;;;;;;;;;5005612;28;20049;-81
2022/06/29 09:04:44;;;;;;;2.47;2.13;;;;;;;;;;5006775;28;20049;-81
2022/06/29 09:07:10;;;;;;;2.42;2.22;;;;;;;;;;5009485;28;20048;-81
2022/06/29 09:09:55;;;;;;;2.85;2.30;;;;;;;;;;5005486;28;20050;-82
2022/06/29 09:12:21;;;;;;;3.50;2.35;;;;;;;;;;5007889;28;20041;-81
2022/06/29 09:14:47;;;;;;;2.97;2.10;;;;;;;;;;5007110;28;20046;-81
2022/06/29 09:17:13;;;;;;;4.35;2.28;;;;;;;;;;5008382;28;20053;-81
2022/06/29 09:19:39;;;;;;;3.55;2.20;;;;;;;;;;5006238;28;20055;-81
2022/06/29 09:22:05;;;;;;;2.42;2.10;;;;;;;;;;5004795;28;20057;-81
2022/06/29 09:24:35;;;;;;;3.92;2.47;;;;;;;;;;5008693;28;20528;-81
2022/06/29 09:27:05;;;;;;;2.67;2.47;;;;;;;;;;5007837;28;20041;-81
2022/06/29 09:29:32;;;;;;;3.17;2.30;;;;;;;;;;5005179;28;20042;-81
2022/06/29 09:32:04;;;;;;;2.65;2.45;;;;;;;;;;5008031;28;20049;-81
2022/06/29 09:34:30;;;;;;;2.72;2.20;;;;;;;;;;5008480;28;20038;-81
2022/06/29 09:36:57;;;;;;;3.30;2.30;;;;;;;;;;5007196;28;20049;-81
2022/06/29 09:39:36;;;;;;;3.80;2.47;;;;;;;;;;5006365;28;20379;-80
2022/06/29 09:42:04;;;;;;;2.55;2.33;;;;;;;;;;5010074;28;20113;-81
2022/06/29 09:44:30;;;;;;;3.38;2.40;;;;;;;;;;5025101;28;20521;-81
2022/06/29 09:46:56;;;;;;;2.67;2.22;;;;;;;;;;5008818;28;20057;-81
2022/06/29 09:49:25;;;;;;;4.25;2.30;;;;;;;;;;5007740;28;20678;-81
2022/06/29 09:51:54;;;;;;;3.55;2.25;;;;;;;;;;5007894;28;20046;-80
2022/06/29 09:54:21;;;;;;;2.63;2.20;;;;;;;;;;5006957;28;20169;-80
2022/06/29 09:56:48;;;;;;;2.42;2.22;;;;;;;;;;5008988;28;20524;-81
2022/06/29 09:59:19;;;;;;;2.63;2.30;;;;;;;;;;5007429;28;20129;-80
2022/06/29 10:04:30;;;;;;;3.05;2.20;;;;;;;;;;5008849;28;20164;-80
2022/06/29 10:06:56;;;;;;;5.70;2.58;;;;;;;;;;5011846;28;20053;-80
2022/06/29 10:09:22;;;;;;;4.35;2.40;;;;;;;;;;5010169;28;20095;-80
2022/06/29 10:14:41;;;;;;;;;;;;;;;;;;5009123;28;20042;-82
2022/06/29 10:17:30;;;;;;;2.92;2.33;;;;;;;;;;5003034;28;20351;-80
2022/06/29 10:19:56;;;;;;;2.92;2.30;;;;;;;;;;5006935;28;20057;-79
2022/06/29 10:22:22;;;;;;;2.75;2.00;;;;;;;;;;5005050;28;21613;-80
2022/06/29 10:25:04;;;;;;;2.60;2.08;;;;;;;;;;5009920;28;20058;-79
2022/06/29 10:27:35;;;;;;;2.45;2.25;;;;;;;;;;5010392;28;20077;-80
2022/06/29 10:30:19;;;;;;;2.40;2.20;;;;;;;;;;5011611;28;20046;-80
2022/06/29 10:32:46;;;;;;;2.50;2.30;;;;;;;;;;5011398;28;20124;-80
2022/06/29 10:35:12;;;;;;;3.00;2.22;;;;;;;;;;5010644;28;20062;-80
2022/06/29 10:37:48;;;;;;;3.72;2.20;;;;;;;;;;5010761;28;20041;-79
2022/06/29 10:40:32;;;;;;;3.25;1.80;;;;;;;;;;5009335;28;20037;-80
2022/06/29 10:43:20;;;;;;;3.53;2.00;;;;;;;;;;5006858;28;20042;-80
2022/06/29 10:45:47;;;;;;;2.30;2.10;;;;;;;;;;5038072;28;20081;-80
2022/06/29 10:48:14;;;;;;;2.50;2.10;;;;;;;;;;5011561;28;20050;-80
2022/06/29 10:50:41;;;;;;;4.90;1.90;;;;;;;;;;5009799;28;20433;-83
2022/06/29 10:53:08;;;;;;;3.60;2.05;;;;;;;;;;5011138;28;20042;-81
2022/06/29 10:55:35;;;;;;;2.15;2.00;;;;;;;;;;5010063;28;20044;-81
2022/06/29 10:58:02;;;;;;;3.90;1.92;;;;;;;;;;5011089;28;20128;-81
2022/06/29 11:00:35;;;;;;;2.40;1.88;;;;;;;;;;5009618;28;20121;-81
2022/06/29 11:03:08;;;;;;;1.92;1.80;;;;;;;;;;5011143;28;20201;-81
2022/06/29 11:05:35;;;;;;;2.13;2.03;;;;;;;;;;5010524;28;20042;-81
2022/06/29 11:13:33;;;;;;;2.58;1.80;;;;;;;;;;5025296;28;20061;-81
2022/06/29 11:16:00;;;;;;;1.88;1.77;;;;;;;;;;5006259;28;20049;-81
2022/06/29 11:18:28;;;;;;;2.10;1.90;;;;;;;;;;5010472;28;20053;-81
2022/06/29 11:20:54;;;;;;;2.80;1.77;;;;;;;;;;5009108;28;20054;-81
2022/06/29 11:23:30;;;;;;;2.13;1.70;;;;;;;;;;5009847;28;20038;-81
2022/06/29 11:25:56;;;;;;;4.03;1.98;;;;;;;;;;5008554;28;20572;-81
2022/06/29 11:28:25;;;;;;;2.08;1.50;;;;;;;;;;5013110;28;20045;-81
2022/06/29 11:31:10;;;;;;;1.77;1.60;;;;;;;;;;5010494;28;20116;-81
2022/06/29 11:33:37;;;;;;;2.00;1.80;;;;;;;;;;5007667;28;20045;-81
2022/06/29 11:36:07;;;;;;;1.88;1.77;;;;;;;;;;5006664;28;20045;-81
2022/06/29 11:38:39;;;;;;;1.80;1.60;;;;;;;;;;5008893;28;20485;-80
2022/06/29 11:41:12;;;;;;;2.03;1.83;;;;;;;;;;5007683;28;20466;-80
2022/06/29 11:43:38;;;;;;;2.17;2.00;;;;;;;;;;5005688;28;20049;-81
2022/06/29 11:46:04;;;;;;;2.60;1.95;;;;;;;;;;5007635;28;20065;-81
2022/06/29 11:48:31;;;;;;;2.58;1.92;;;;;;;;;;5011218;28;20053;-80
2022/06/29 11:50:57;;;;;;;3.47;2.20;;;;;;;;;;5009706;28;20380;-80
2022/06/29 11:53:45;;;;;;;2.20;2.00;;;;;;;;;;5009181;28;20038;-81
2022/06/29 11:56:13;;;;;;;2.60;2.00;;;;;;;;;;5016188;28;20458;-80
2022/06/29 11:58:40;;;;;;;1.75;1.63;;;;;;;;;;5011298;28;20498;-80
2022/06/29 12:01:13;;;;;;;2.42;1.90;;;;;;;;;;5008726;28;20487;-80
2022/06/29 12:03:39;;;;;;;2.00;1.80;;;;;;;;;;5004782;28;20038;-80
2022/06/29 12:06:05;;;;;;;2.17;2.08;;;;;;;;;;5012849;28;20077;-81
2022/06/29 12:08:31;;;;;;;1.90;1.80;;;;;;;;;;5008805;28;20052;-81
2022/06/29 12:10:58;;;;;;;1.80;1.70;;;;;;;;;;5010475;28;20042;-80
2022/06/29 12:13:24;;;;;;;1.90;1.70;;;;;;;;;;5010785;28;21299;-81
2022/06/29 12:15:51;;;;;;;2.17;1.83;;;;;;;;;;5019001;28;20073;-81
2022/06/29 12:18:17;;;;;;;2.08;1.88;;;;;;;;;;5004077;28;20486;-81
2022/06/29 12:20:44;;;;;;;2.53;1.73;;;;;;;;;;5015652;28;20085;-81
2022/06/29 12:23:10;;;;;;;2.55;1.70;;;;;;;;;;5022973;28;20057;-81
2022/06/29 12:25:36;;;;;;;3.45;1.50;;;;;;;;;;5006352;28;20096;-81
2022/06/29 12:28:02;;;;;;;3.53;1.60;;;;;;;;;;5005343;28;20140;-79
2022/06/29 12:30:32;;;;;;;3.75;1.70;;;;;;;;;;5006036;28;20188;-80
2022/06/29 12:32:58;;;;;;;1.73;1.60;;;;;;;;;;5005495;28;20077;-80
2022/06/29 12:35:24;;;;;;;1.50;1.40;;;;;;;;;;5005652;28;20096;-80
2022/06/29 12:37:53;;;;;;;2.17;1.50;;;;;;;;;;5005851;28;20137;-80
2022/06/29 12:40:19;;;;;;;3.20;1.60;;;;;;;;;;5008334;28;20095;-82
2022/06/29 12:42:47;;;;;;;1.50;1.40;;;;;;;;;;5004437;28;20038;-80
2022/06/29 12:45:13;;;;;;;1.92;1.42;;;;;;;;;;5007272;28;20092;-82
2022/06/29 12:47:39;;;;;;;2.28;1.63;;;;;;;;;;5005014;28;20045;-80
2022/06/29 12:50:05;;;;;;;3.22;1.73;;;;;;;;;;5005772;28;20045;-79
2022/06/29 12:52:34;;;;;;;1.95;1.85;;;;;;;;;;5005113;28;20042;-80
2022/06/29 12:55:00;;;;;;;3.10;1.60;;;;;;;;;;5006399;28;20045;-78
2022/06/29 12:57:26;;;;;;;1.80;1.70;;;;;;;;;;5006070;28;20348;-80
2022/06/29 12:59:52;;;;;;;3.35;1.70;;;;;;;;;;5008028;28;20130;-81
2022/06/29 13:02:21;;;;;;;3.17;1.70;;;;;;;;;;5008494;28;20209;-82
2022/06/29 13:04:48;;;;;;;1.45;1.40;;;;;;;;;;5005978;28;20072;-83
2022/06/29 13:07:14;;;;;;;2.22;1.40;;;;;;;;;;5004943;28;20053;-81
2022/06/29 13:09:40;;;;;;;4.38;1.50;;;;;;;;;;5009012;28;20060;-80
2022/06/29 13:12:06;;;;;;;1.55;1.45;;;;;;;;;;5007328;28;20054;-80
2022/06/29 13:14:32;;;;;;;2.10;1.50;;;;;;;;;;4992387;28;20080;-82
2022/06/29 13:16:58;;;;;;;2.50;1.40;;;;;;;;;;4999864;28;20171;-81
2022/06/29 13:19:24;;;;;;;1.63;1.52;;;;;;;;;;4989867;28;20157;-80
2022/06/29 13:21:50;;;;;;;1.80;1.60;;;;;;;;;;5001722;28;20058;-79
2022/06/29 13:24:16;;;;;;;2.55;1.60;;;;;;;;;;4990194;28;20129;-80
2022/06/29 13:26:42;;;;;;;1.73;1.55;;;;;;;;;;5007393;28;20136;-81
2022/06/29 13:29:08;;;;;;;2.80;1.60;;;;;;;;;;5006852;28;20559;-81
2022/06/29 13:31:37;;;;;;;1.83;1.58;;;;;;;;;;5011363;28;20041;-81
2022/06/29 13:34:03;;;;;;;1.65;1.55;;;;;;;;;;5014681;28;20104;-83
2022/06/29 13:36:29;;;;;;;1.85;1.52;;;;;;;;;;5019707;28;20049;-82
2022/06/29 13:38:55;;;;;;;2.88;1.50;;;;;;;;;;5018404;28;20050;-82
2022/06/29 13:41:21;;;;;;;1.75;1.65;;;;;;;;;;5010897;28;20129;-81
2022/06/29 13:43:47;;;;;;;1.83;1.70;;;;;;;;;;5024052;28;20076;-82
2022/06/29 13:46:13;;;;;;;3.65;1.80;;;;;;;;;;5031171;28;20378;-83
2022/06/29 13:48:39;;;;;;;2.53;1.70;;;;;;;;;;5032470;28;20428;-82
2022/06/29 13:51:05;;;;;;;1.77;1.40;;;;;;;;;;5019915;28;20056;-82
2022/06/29 13:53:33;;;;;;;2.10;1.63;;;;;;;;;;5021802;28;20046;-82
2022/06/29 13:55:59;;;;;;;2.15;1.50;;;;;;;;;;5018310;28;20042;-82
2022/06/29 13:58:25;;;;;;;3.80;1.50;;;;;;;;;;5012566;28;20531;-82
2022/06/29 14:00:51;;;;;;;1.67;1.58;;;;;;;;;;5011738;28;20037;-81
2022/06/29 14:03:18;;;;;;;2.72;1.60;;;;;;;;;;5031125;28;20797;-83
2022/06/29 14:05:44;;;;;;;1.63;1.52;;;;;;;;;;5027427;28;20505;-83
2022/06/29 14:08:10;;;;;;;1.55;1.45;;;;;;;;;;5009352;28;20394;-83
2022/06/29 14:10:36;;;;;;;1.60;1.50;;;;;;;;;;5011837;28;20041;-84
2022/06/29 14:13:03;;;;;;;3.53;1.77;;;;;;;;;;5011745;28;20038;-83
2022/06/29 14:15:29;;;;;;;1.40;1.30;;;;;;;;;;5007016;28;20088;-82
2022/06/29 14:17:55;;;;;;;1.83;1.60;;;;;;;;;;5002230;28;20051;-79
2022/06/29 14:20:21;;;;;;;3.17;1.40;;;;;;;;;;5007980;28;20115;-81
2022/06/29 14:22:47;;;;;;;3.17;1.60;;;;;;;;;;5019580;28;20049;-80
2022/06/29 14:25:13;;;;;;;1.63;1.52;;;;;;;;;;5010701;28;20045;-80
2022/06/29 14:27:39;;;;;;;2.22;1.50;;;;;;;;;;5013573;28;20057;-80
2022/06/29 14:30:05;;;;;;;1.67;1.58;;;;;;;;;;5013310;28;20046;-79
2022/06/29 14:32:31;;;;;;;1.92;1.83;;;;;;;;;;5015535;28;20045;-79
2022/06/29 14:34:57;;;;;;;1.90;1.80;;;;;;;;;;5026809;28;20486;-78
2022/06/29 14:37:23;;;;;;;1.70;1.60;;;;;;;;;;5015785;28;20085;-78
2022/06/29 14:39:50;;;;;;;1.60;1.50;;;;;;;;;;5031599;28;20042;-78
2022/06/29 14:42:19;;;;;;;4.38;1.60;;;;;;;;;;5007392;28;20692;-82
2022/06/29 14:44:45;;;;;;;1.52;1.42;;;;;;;;;;5013035;28;20038;-76
2022/06/29 14:47:11;;;;;;;2.47;1.40;;;;;;;;;;5008639;28;20052;-78
2022/06/29 14:49:40;;;;;;;2.20;1.42;;;;;;;;;;4995734;28;20408;-78
2022/06/29 14:52:06;;;;;;;2.80;1.50;;;;;;;;;;5009420;28;20050;-78
2022/06/29 14:54:32;;;;;;;1.67;1.10;;;;;;;;;;5006110;28;20116;-78
2022/06/29 14:56:58;;;;;;;1.52;1.42;;;;;;;;;;5010456;28;20052;-78
2022/06/29 14:59:24;;;;;;;1.35;1.25;;;;;;;;;;5011948;28;20588;-79
2022/06/29 15:01:50;;;;;;;1.40;1.30;;;;;;;;;;5004241;28;20049;-80
2022/06/29 15:04:20;;;;;;;1.25;1.15;;;;;;;;;;5009405;28;20367;-80
2022/06/29 15:06:46;;;;;;;1.30;1.20;;;;;;;;;;5007142;28;20050;-80